Visalia, Kentucky
Current Conditions -  °F | °C
As of 8:52 PM on Tuesday 21 Oct 2014 (Local Time) from KCVG Reporting Station
Broken Clouds Broken Clouds  
Wind Chill: 50°   Ceiling: 3700
Heat Index: 50°   Visibility: 10mi
Dew Point: 40°   Wind: 8mph
Humidity: 68%   Direction: 10°N
Pressure: 30.13"   Gusts: NA
Location:  38.8354°N, 84.5143°W
Report Text: KCVG 220052Z 01007KT 10SM BKN037 BKN048 10/04 A3013 RMK AO2 SLP203 T01000044
Loading
Personal Weather Stations






























Interactive Weather Map
Tropical Storm Tracking
New forecast layout! Learn more

10-Day Weather Forecast

Advertisements
Track Severe Weather on mobile